Time;durP1;ratioP1;P1;durP2;ratioP2;P2;SDS_P1;SDS_P2;PMS_P1;PMS_P2;Temp;Humidity;BMP_temperature;BMP_pressure;BME280_temperature;BME280_humidity;BME280_pressure;Samples;Min_cycle;Max_cycle;Signal;HPM_P1;HPM_P2
2022/08/18 00:00:24;;;;;;;10.58;5.05;;;;;;;21.02;80.85;98964.25;1809721;79;21572;-75
2022/08/18 00:02:50;;;;;;;9.05;5.03;;;;;;;21.01;81.24;98964.39;1810226;79;21034;-75
2022/08/18 00:05:17;;;;;;;11.50;5.53;;;;;;;20.94;81.45;98963.56;1810125;79;21079;-75
2022/08/18 00:07:44;;;;;;;8.18;4.37;;;;;;;20.89;81.68;98958.27;1810030;79;21806;-75
2022/08/18 00:10:10;;;;;;;8.05;4.03;;;;;;;20.87;81.36;98960.23;1810213;79;21609;-75
2022/08/18 00:12:40;;;;;;;10.15;4.65;;;;;;;20.84;81.52;98952.48;1809904;79;21039;-75
2022/08/18 00:15:09;;;;;;;11.25;5.30;;;;;;;20.80;81.83;98957.75;1810283;79;21553;-75
2022/08/18 00:17:36;;;;;;;9.80;5.03;;;;;;;20.74;82.17;98950.58;1810258;79;21125;-75
2022/08/18 00:20:07;;;;;;;11.83;4.97;;;;;;;20.71;82.19;98950.87;1809971;79;21545;-75
2022/08/18 00:22:34;;;;;;;9.18;4.80;;;;;;;20.68;82.14;98958.28;1809947;79;20949;-75
2022/08/18 00:25:01;;;;;;;9.98;4.70;;;;;;;20.63;82.20;98964.04;1780959;79;20980;-75
2022/08/18 00:27:29;;;;;;;8.33;4.60;;;;;;;20.59;82.32;98967.91;1810107;79;20976;-74
2022/08/18 00:29:59;;;;;;;7.72;5.08;;;;;;;20.55;82.22;98966.48;1810018;79;21079;-75
2022/08/18 00:32:32;;;;;;;10.98;5.28;;;;;;;20.53;81.96;98971.95;1810065;79;21135;-74
2022/08/18 00:35:12;;;;;;;16.27;4.75;;;;;;;20.53;81.81;98963.09;1809470;79;21020;-75
2022/08/18 00:37:40;;;;;;;9.10;4.20;;;;;;;20.49;81.83;98964.31;1810174;79;21609;-75
2022/08/18 00:40:09;;;;;;;7.05;4.10;;;;;;;20.43;81.78;98956.34;1810067;79;22269;-75
2022/08/18 00:42:42;;;;;;;9.35;4.42;;;;;;;20.37;81.79;98959.02;1810433;79;21062;-74
2022/08/18 00:45:13;;;;;;;10.45;4.55;;;;;;;20.34;82.06;98957.97;1809548;79;22185;-74
2022/08/18 00:47:39;;;;;;;9.83;4.37;;;;;;;20.32;82.12;98963.91;1807347;79;21046;-75
2022/08/18 00:50:07;;;;;;;7.05;4.28;;;;;;;20.30;82.22;98957.86;1807337;79;20991;-74
2022/08/18 00:52:33;;;;;;;12.90;4.50;;;;;;;20.28;82.32;98954.47;1807323;79;21593;-75
2022/08/18 00:55:01;;;;;;;9.68;4.30;;;;;;;20.28;82.42;98958.48;1778418;79;21098;-74
2022/08/18 00:57:28;;;;;;;8.73;4.75;;;;;;;20.27;82.52;98960.78;1807547;79;21534;-75
2022/08/18 01:00:07;;;;;;;9.95;4.62;;;;;;;20.25;82.75;98954.72;1807509;79;21047;-74
2022/08/18 01:02:32;;;;;;;9.73;4.33;;;;;;;20.22;82.76;98960.31;1806028;79;20976;-75
2022/08/18 01:05:09;;;;;;;9.78;4.42;;;;;;;20.20;82.75;98959.11;1807680;79;21118;-75
2022/08/18 01:07:44;;;;;;;12.20;4.42;;;;;;;20.18;82.72;98953.05;1807449;79;20975;-75
2022/08/18 01:10:17;;;;;;;13.05;4.55;;;;;;;20.17;82.80;98957.19;1807812;78;21106;-75
2022/08/18 01:12:54;;;;;;;10.03;4.42;;;;;;;20.16;83.07;98952.84;1807232;79;21023;-75
2022/08/18 01:15:21;;;;;;;13.65;4.37;;;;;;;20.14;83.29;98952.09;1804988;79;21184;-74
2022/08/18 01:23:38;;;;;;;10.17;4.30;;;;;;;20.11;83.47;98959.05;1807829;79;21132;-75
2022/08/18 01:26:05;;;;;;;12.13;4.62;;;;;;;20.07;83.51;98949.58;1807210;79;21569;-75
2022/08/18 01:28:37;;;;;;;8.55;4.53;;;;;;;20.09;83.51;98963.65;1807497;79;21000;-75
2022/08/18 01:31:04;;;;;;;12.63;4.58;;;;;;;20.08;83.63;98952.62;1807339;79;21038;-75
2022/08/18 01:33:36;;;;;;;11.18;4.95;;;;;;;20.06;83.83;98957.25;1807542;79;21042;-74
2022/08/18 01:36:16;;;;;;;9.75;4.80;;;;;;;20.04;83.93;98964.89;1790218;79;22300;-75
2022/08/18 01:38:44;;;;;;;8.40;4.45;;;;;;;20.03;83.91;98954.33;1813117;79;21042;-75
2022/08/18 01:41:11;;;;;;;15.93;4.00;;;;;;;20.03;84.04;98964.52;1813459;79;20983;-75
2022/08/18 01:43:37;;;;;;;4.95;4.45;;;;;;;20.02;84.14;98964.64;1815321;78;21170;-75
2022/08/18 01:46:04;;;;;;;10.10;4.25;;;;;;;20.00;84.18;98966.09;1818799;78;21021;-75
2022/08/18 01:48:33;;;;;;;12.55;4.37;;;;;;;20.01;84.19;98969.64;1775694;80;21148;-75
2022/08/18 01:51:06;;;;;;;6.60;4.35;;;;;;;20.01;84.11;98971.81;1803937;79;21085;-75
2022/08/18 01:53:34;;;;;;;8.65;4.33;;;;;;;20.00;84.16;98971.44;1798650;79;21010;-75
2022/08/18 01:56:03;;;;;;;7.30;4.10;;;;;;;19.98;84.22;98968.05;1791816;80;20985;-75
2022/08/18 01:58:29;;;;;;;11.75;4.28;;;;;;;19.97;84.26;98970.84;1791977;80;21009;-75
2022/08/18 02:00:57;;;;;;;11.95;4.30;;;;;;;19.97;84.19;98976.19;1791881;80;21228;-75
2022/08/18 02:03:25;;;;;;;8.88;3.80;;;;;;;19.93;84.21;98979.61;1792208;80;21055;-75
2022/08/18 02:05:55;;;;;;;8.68;4.00;;;;;;;19.90;84.11;98977.18;1791691;80;20992;-76
2022/08/18 02:08:22;;;;;;;14.05;4.97;;;;;;;19.88;84.14;98979.63;1791727;80;21055;-75
2022/08/18 02:10:48;;;;;;;5.33;3.87;;;;;;;19.86;84.15;98975.75;1791832;80;21094;-75
2022/08/18 02:13:15;;;;;;;12.23;4.28;;;;;;;19.85;84.11;98980.25;1791807;80;21135;-75
2022/08/18 02:15:41;;;;;;;11.15;4.15;;;;;;;19.84;84.16;98977.70;1792160;80;21618;-75
2022/08/18 02:18:19;;;;;;;7.90;4.22;;;;;;;19.80;84.19;98976.23;1791997;80;20988;-75
2022/08/18 02:20:46;;;;;;;11.30;4.35;;;;;;;19.78;84.26;98982.20;1792062;80;21091;-75
2022/08/18 02:23:12;;;;;;;11.40;4.40;;;;;;;19.78;84.33;98972.36;1791928;80;21063;-75
2022/08/18 02:25:41;;;;;;;9.20;4.67;;;;;;;19.75;84.52;98975.77;1791910;80;21627;-75
2022/08/18 02:28:09;;;;;;;14.28;4.85;;;;;;;19.73;84.65;98975.02;1791894;80;21488;-75
2022/08/18 02:30:36;;;;;;;6.85;4.62;;;;;;;19.70;84.67;98968.09;1791861;80;21447;-75
2022/08/18 02:33:05;;;;;;;5.35;4.20;;;;;;;19.70;84.53;98975.27;1792337;80;21668;-75
2022/08/18 02:35:32;;;;;;;8.55;4.37;;;;;;;19.68;84.56;98966.88;1791824;80;21048;-75
2022/08/18 02:38:00;;;;;;;12.88;4.22;;;;;;;19.68;84.61;98978.05;1792127;80;21526;-75
2022/08/18 02:40:27;;;;;;;11.18;4.20;;;;;;;19.66;84.47;98976.84;1791804;80;20985;-75
2022/08/18 02:42:54;;;;;;;7.65;4.20;;;;;;;19.66;84.37;98972.00;1792049;80;21032;-75
2022/08/18 02:45:24;;;;;;;12.28;4.70;;;;;;;19.66;84.32;98972.84;1792185;80;21106;-75
2022/08/18 02:47:52;;;;;;;7.95;4.92;;;;;;;19.65;84.31;98976.50;1797357;79;21471;-74
2022/08/18 02:50:19;;;;;;;7.15;4.15;;;;;;;19.62;84.34;98976.74;1797656;79;21594;-75
2022/08/18 02:52:45;;;;;;;8.18;4.30;;;;;;;19.60;84.22;98977.36;1797706;79;21016;-76
2022/08/18 02:55:12;;;;;;;7.28;3.95;;;;;;;19.60;84.13;98977.36;1797933;79;20937;-75
2022/08/18 02:57:44;;;;;;;11.83;4.42;;;;;;;19.59;84.15;98976.98;1797637;79;21566;-75
2022/08/18 03:00:14;;;;;;;9.55;4.00;;;;;;;19.58;84.21;98980.61;1797912;79;21004;-74
2022/08/18 03:02:47;;;;;;;7.75;4.10;;;;;;;19.57;84.19;98974.94;1797725;79;21242;-74
2022/08/18 03:05:14;;;;;;;7.53;3.87;;;;;;;19.57;84.06;98984.73;1797777;79;21221;-74
2022/08/18 03:07:40;;;;;;;7.37;3.50;;;;;;;19.57;84.00;98983.40;1797718;79;22016;-75
2022/08/18 03:10:08;;;;;;;6.47;4.08;;;;;;;19.56;84.01;98985.23;1797546;79;21023;-74
2022/08/18 03:12:35;;;;;;;11.08;4.35;;;;;;;19.54;84.04;98988.52;1798009;79;20987;-75
2022/08/18 03:15:02;;;;;;;9.90;4.53;;;;;;;19.51;84.01;98983.91;1797669;79;21230;-75
2022/08/18 03:17:30;;;;;;;12.80;4.20;;;;;;;19.48;84.21;98980.53;1797654;79;21083;-75
2022/08/18 03:19:57;;;;;;;11.12;4.42;;;;;;;19.42;84.33;98976.17;1797578;79;21075;-76
2022/08/18 03:22:24;;;;;;;5.12;4.00;;;;;;;19.40;84.45;98983.42;1798013;79;21625;-75
2022/08/18 03:24:51;;;;;;;9.05;4.15;;;;;;;19.39;84.58;98984.41;1797688;79;21606;-75
2022/08/18 03:27:17;;;;;;;7.92;3.75;;;;;;;19.42;84.69;98985.51;1797537;79;21260;-75
2022/08/18 03:29:44;;;;;;;12.10;4.72;;;;;;;19.45;84.62;98997.23;1797716;79;21067;-75
2022/08/18 03:32:10;;;;;;;8.53;4.28;;;;;;;19.44;84.69;98988.40;1797811;79;21527;-75
2022/08/18 03:34:37;;;;;;;10.35;4.62;;;;;;;19.46;84.60;98994.95;1797590;79;21068;-75
2022/08/18 03:37:04;;;;;;;8.08;4.50;;;;;;;19.46;84.71;98994.95;1797644;79;21024;-75
2022/08/18 03:39:32;;;;;;;10.70;4.40;;;;;;;19.48;84.71;99003.67;1797747;79;21556;-76
2022/08/18 03:41:58;;;;;;;7.78;4.50;;;;;;;19.49;84.56;98994.70;1797521;79;21063;-76
2022/08/18 03:44:26;;;;;;;5.95;4.33;;;;;;;19.49;84.57;99000.88;1797557;79;21000;-75
2022/08/18 03:46:53;;;;;;;13.78;4.10;;;;;;;19.50;84.59;99001.72;1811869;78;21054;-75
2022/08/18 03:49:19;;;;;;;10.80;4.28;;;;;;;19.51;84.52;99002.59;1815427;78;22268;-75
2022/08/18 03:51:47;;;;;;;8.23;4.08;;;;;;;19.53;84.48;99004.15;1810299;79;21248;-75
2022/08/18 03:54:15;;;;;;;11.12;4.45;;;;;;;19.53;84.50;99005.48;1810151;79;21050;-75
2022/08/18 03:56:43;;;;;;;10.00;4.75;;;;;;;19.55;84.49;98997.36;1810198;79;21496;-75
2022/08/18 03:59:14;;;;;;;7.47;4.28;;;;;;;19.57;84.42;99000.28;1810273;79;21475;-75
2022/08/18 04:01:42;;;;;;;11.05;3.98;;;;;;;19.58;84.41;99001.96;1768582;81;21094;-75
2022/08/18 04:04:12;;;;;;;6.70;4.17;;;;;;;19.60;84.26;99002.71;1753268;81;22049;-74
2022/08/18 04:06:44;;;;;;;12.88;4.40;;;;;;;19.59;83.99;99006.34;1753135;81;21040;-75
2022/08/18 04:09:13;;;;;;;9.35;4.20;;;;;;;19.63;83.87;99009.61;1752884;81;21128;-75
2022/08/18 04:11:44;;;;;;;12.60;4.20;;;;;;;19.64;83.83;99010.81;1753011;81;21080;-74
2022/08/18 04:14:16;;;;;;;7.90;4.58;;;;;;;19.68;83.73;99003.41;1753213;81;20981;-75
2022/08/18 04:16:43;;;;;;;10.98;4.15;;;;;;;19.71;83.72;99004.50;1753105;81;21136;-75
2022/08/18 04:19:12;;;;;;;15.18;4.83;;;;;;;19.74;83.67;99004.75;1753223;81;21591;-75
2022/08/18 04:21:41;;;;;;;11.10;4.55;;;;;;;19.77;83.51;99001.38;1753041;81;21009;-75
2022/08/18 04:24:08;;;;;;;12.25;4.20;;;;;;;19.82;83.22;99002.31;1752894;81;21075;-76
2022/08/18 04:26:38;;;;;;;15.55;4.50;;;;;;;19.84;82.97;99001.23;1753059;81;21123;-74
2022/08/18 04:29:05;;;;;;;8.23;4.97;;;;;;;19.86;82.77;99011.79;1753344;81;21576;-75
2022/08/18 04:31:33;;;;;;;7.83;4.10;;;;;;;19.89;82.83;99010.21;1753129;81;21133;-76
2022/08/18 04:34:00;;;;;;;13.15;4.58;;;;;;;19.92;82.66;99006.42;1752883;81;21079;-76
2022/08/18 04:36:27;;;;;;;8.63;4.35;;;;;;;19.96;82.43;99013.23;1753115;81;20965;-75
2022/08/18 04:38:54;;;;;;;10.40;4.47;;;;;;;19.98;82.45;99012.12;1753117;81;21534;-75
2022/08/18 04:41:25;;;;;;;8.13;4.37;;;;;;;20.02;82.11;99018.92;1752926;81;21236;-75
2022/08/18 04:43:51;;;;;;;10.63;4.85;;;;;;;20.03;81.68;99016.59;1752297;81;21607;-75
2022/08/18 04:46:17;;;;;;;12.98;4.20;;;;;;;20.07;81.52;99023.86;1753687;81;21108;-76
2022/08/18 04:48:43;;;;;;;8.53;4.50;;;;;;;20.13;81.13;99019.86;1768931;80;20991;-75
2022/08/18 04:51:13;;;;;;;12.07;4.40;;;;;;;20.16;80.95;99026.28;1768960;81;21015;-75
2022/08/18 04:53:45;;;;;;;10.95;4.03;;;;;;;20.18;80.94;99022.50;1769148;81;21091;-75
2022/08/18 04:56:28;;;;;;;12.05;4.28;;;;;;;20.23;80.84;99026.13;1768959;81;21073;-75
2022/08/18 04:59:07;;;;;;;14.33;4.17;;;;;;;20.28;80.76;99022.59;1769096;81;21607;-74
2022/08/18 05:01:41;;;;;;;8.08;4.03;;;;;;;20.35;80.05;99019.77;1769003;81;21517;-76
2022/08/18 05:04:07;;;;;;;8.48;4.55;;;;;;;20.38;79.20;99024.86;1769262;81;21655;-75
2022/08/18 05:06:34;;;;;;;11.78;4.47;;;;;;;20.40;78.80;99029.58;1768812;80;21218;-74
2022/08/18 05:09:04;;;;;;;11.18;4.90;;;;;;;20.44;78.68;99023.48;1769099;81;21003;-75
2022/08/18 05:11:36;;;;;;;20.15;3.95;;;;;;;20.48;78.44;99028.11;1769096;80;21102;-75
2022/08/18 05:14:04;;;;;;;10.08;4.25;;;;;;;20.53;77.81;99023.23;1767963;81;21046;-76
2022/08/18 05:16:35;;;;;;;11.15;4.20;;;;;;;20.58;77.58;99025.02;1768107;80;21584;-76
2022/08/18 05:19:05;;;;;;;12.33;4.10;;;;;;;20.62;77.60;99026.45;1769148;80;21142;-74
2022/08/18 05:21:35;;;;;;;6.83;4.47;;;;;;;20.68;77.69;99021.09;1768674;80;21062;-75
2022/08/18 05:24:03;;;;;;;5.53;4.00;;;;;;;20.71;77.27;99024.38;1769161;81;21506;-76
2022/08/18 05:26:30;;;;;;;9.43;3.70;;;;;;;20.76;76.52;99023.97;1768964;80;21074;-75
2022/08/18 05:28:57;;;;;;;11.00;4.25;;;;;;;20.82;76.45;99023.46;1768791;80;21066;-75
2022/08/18 05:31:25;;;;;;;8.78;3.58;;;;;;;20.88;76.41;99020.73;1768982;80;21034;-75
2022/08/18 05:33:51;;;;;;;5.42;3.67;;;;;;;20.93;75.59;99017.19;1769278;80;21094;-75
2022/08/18 05:36:51;;;;;;;8.23;3.95;;;;;;;20.98;75.83;99021.68;1768829;80;21042;-75
2022/08/18 05:39:22;;;;;;;11.30;4.50;;;;;;;21.04;75.72;99019.80;1768816;81;21128;-75
2022/08/18 05:42:09;;;;;;;9.03;3.95;;;;;;;21.12;75.16;99019.98;1768964;80;21086;-75
2022/08/18 05:44:43;;;;;;;14.13;3.95;;;;;;;21.17;74.33;99028.95;1769053;80;21146;-76
2022/08/18 05:47:26;;;;;;;12.40;4.20;;;;;;;21.21;74.31;99022.34;1768879;80;22197;-74
2022/08/18 05:49:54;;;;;;;5.60;3.75;;;;;;;21.27;74.07;99030.34;1768501;80;21587;-75
2022/08/18 05:52:41;;;;;;;9.75;4.25;;;;;;;21.34;73.87;99025.64;1768916;81;20987;-75
2022/08/18 05:58:08;;;;;;;10.40;3.90;;;;;;;21.50;73.25;99030.55;1760886;81;21273;-75
2022/08/18 06:00:34;;;;;;;10.10;4.20;;;;;;;21.55;72.57;99035.48;1761281;81;21047;-75
2022/08/18 06:03:19;;;;;;;12.58;4.25;;;;;;;21.60;72.15;99034.61;1761291;80;21010;-75
2022/08/18 06:06:02;;;;;;;15.25;3.85;;;;;;;21.68;72.33;99031.23;1760251;81;21110;-74
2022/08/18 06:08:38;;;;;;;6.33;3.80;;;;;;;21.76;71.81;99029.23;1716142;81;21062;-74
2022/08/18 06:11:04;;;;;;;8.93;4.20;;;;;;;21.83;71.62;99032.55;1760983;81;21122;-74
2022/08/18 06:13:37;;;;;;;9.50;3.62;;;;;;;21.92;71.42;99031.38;1761257;80;20999;-75
2022/08/18 06:16:22;;;;;;;11.83;3.65;;;;;;;21.99;71.41;99032.51;1761506;81;21129;-75
2022/08/18 06:19:23;;;;;;;9.90;4.20;;;;;;;22.07;70.54;99034.01;1761345;80;22260;-75
2022/08/18 06:22:19;;;;;;;11.55;3.85;;;;;;;22.16;70.47;99036.38;1761592;81;21133;-75
2022/08/18 06:25:00;;;;;;;18.48;4.25;;;;;;;22.25;69.87;99041.72;1757792;80;21788;-75
2022/08/18 06:27:41;;;;;;;7.62;3.77;;;;;;;22.34;69.53;99037.88;1761079;80;21058;-75
2022/08/18 06:30:23;;;;;;;6.30;3.70;;;;;;;22.41;69.55;99043.89;1730142;81;21561;-75
2022/08/18 06:33:16;;;;;;;7.92;3.87;;;;;;;22.50;69.36;99050.23;1761352;81;21486;-74
2022/08/18 06:35:49;;;;;;;8.08;4.15;;;;;;;22.59;69.08;99048.07;1761322;81;20967;-75
2022/08/18 06:38:52;;;;;;;12.60;3.98;;;;;;;22.66;68.16;99041.61;1761365;81;21920;-75
2022/08/18 06:41:35;;;;;;;8.53;3.65;;;;;;;22.68;67.62;99044.16;1761004;81;22031;-75
2022/08/18 06:44:14;;;;;;;8.47;4.67;;;;;;;22.86;67.86;99029.03;1761576;81;21098;-74
2022/08/18 06:47:14;;;;;;;15.18;4.28;;;;;;;22.86;67.86;99029.03;1761175;81;20998;-75
2022/08/18 06:50:08;;;;;;;16.35;3.80;;;;;;;22.95;67.78;99029.52;1761345;80;21636;-75
2022/08/18 06:52:38;;;;;;;9.90;4.50;;;;;;;23.06;68.33;99034.38;1761078;81;21857;-75
2022/08/18 06:55:14;;;;;;;12.60;4.40;;;;;;;23.16;68.26;99041.42;1758388;81;21573;-74
2022/08/18 06:58:00;;;;;;;11.60;4.03;;;;;;;23.25;67.90;99045.58;1761114;81;21074;-75
2022/08/18 07:00:30;;;;;;;19.62;4.40;;;;;;;23.32;67.06;99044.86;1761141;80;21550;-75
2022/08/18 07:03:06;;;;;;;14.03;3.90;;;;;;;23.37;67.10;99041.23;1761206;80;21038;-75
2022/08/18 07:05:34;;;;;;;11.28;4.25;;;;;;;23.45;66.46;99034.27;1761535;81;21890;-75
2022/08/18 07:08:10;;;;;;;11.12;4.12;;;;;;;23.51;65.91;99031.02;1760862;81;21027;-75
2022/08/18 07:10:44;;;;;;;7.45;4.00;;;;;;;23.58;66.19;99031.27;1761329;80;21157;-75
2022/08/18 07:13:25;;;;;;;6.17;4.00;;;;;;;23.66;66.49;99034.89;1761215;81;21090;-75
2022/08/18 07:15:54;;;;;;;16.77;4.20;;;;;;;23.78;65.59;99029.33;1761458;81;22036;-75
2022/08/18 07:18:26;;;;;;;14.28;4.40;;;;;;;23.83;65.35;99028.41;1761169;81;21572;-75
2022/08/18 07:20:59;;;;;;;8.00;4.30;;;;;;;23.88;65.29;99030.16;1761036;80;21562;-75
2022/08/18 07:23:38;;;;;;;7.73;3.60;;;;;;;23.95;64.81;99033.92;1760504;81;21141;-74
2022/08/18 07:26:14;;;;;;;14.47;4.28;;;;;;;24.03;64.16;99036.70;1761445;80;21011;-75
2022/08/18 07:28:48;;;;;;;13.13;4.12;;;;;;;24.13;62.80;99039.33;1761346;80;21069;-76
2022/08/18 07:31:37;;;;;;;9.93;3.58;;;;;;;24.20;62.45;99044.95;1761192;81;21475;-75
2022/08/18 07:34:35;;;;;;;6.42;3.47;;;;;;;24.27;62.88;99040.64;1761097;81;20979;-75
2022/08/18 07:37:02;;;;;;;12.10;3.35;;;;;;;24.35;61.49;99044.76;1760651;80;20995;-75
2022/08/18 07:39:36;;;;;;;15.38;3.62;;;;;;;24.42;61.02;99041.80;1761324;80;21110;-74
2022/08/18 07:42:31;;;;;;;21.30;3.20;;;;;;;24.48;60.89;99041.19;1761799;81;21116;-75
2022/08/18 07:45:20;;;;;;;;;;;;;;;24.55;59.93;99036.58;1763873;80;21241;-75
2022/08/18 07:47:55;;;;;;;11.00;3.33;;;;;;;24.61;60.28;99032.77;1757135;81;20225;-74
2022/08/18 07:50:22;;;;;;;19.05;3.47;;;;;;;24.68;59.43;99033.00;1744461;81;21198;-75
2022/08/18 07:52:54;;;;;;;7.95;3.37;;;;;;;24.75;59.26;99035.41;1744406;82;21075;-75
2022/08/18 07:55:31;;;;;;;10.65;3.30;;;;;;;24.83;59.01;99040.85;1743328;81;21052;-75
2022/08/18 07:58:38;;;;;;;11.10;3.22;;;;;;;24.92;58.93;99038.23;1727480;83;21531;-74
2022/08/18 08:01:10;;;;;;;5.60;3.02;;;;;;;25.00;59.49;99043.16;1756037;81;21115;-75
2022/08/18 08:03:55;;;;;;;10.35;3.95;;;;;;;25.13;59.08;99042.75;1755803;81;21158;-74
2022/08/18 08:06:41;;;;;;;10.48;3.60;;;;;;;25.24;58.31;99044.84;1757128;81;21421;-75
2022/08/18 08:09:31;;;;;;;9.25;3.10;;;;;;;25.32;57.76;99035.50;1757565;81;21052;-76
2022/08/18 08:12:02;;;;;;;8.83;3.37;;;;;;;25.41;57.55;99033.17;1757194;81;21240;-75
2022/08/18 08:14:44;;;;;;;9.65;3.67;;;;;;;25.51;57.40;99028.51;1757070;81;21071;-74
2022/08/18 08:17:27;;;;;;;16.07;3.20;;;;;;;25.57;56.96;99031.05;1756478;81;21057;-74
2022/08/18 08:20:27;;;;;;;10.75;3.40;;;;;;;25.63;56.84;99026.37;1757491;81;21040;-75
2022/08/18 08:23:26;;;;;;;13.22;3.47;;;;;;;25.68;56.68;99027.24;1757296;81;21506;-76
2022/08/18 08:26:21;;;;;;;10.70;3.42;;;;;;;25.71;57.15;99025.06;1757145;81;21488;-75
2022/08/18 08:29:18;;;;;;;11.83;3.30;;;;;;;25.78;56.10;99030.64;1757249;81;21076;-75
2022/08/18 08:32:08;;;;;;;13.13;3.92;;;;;;;25.85;56.09;99028.98;1755604;81;21025;-75
2022/08/18 08:34:51;;;;;;;6.72;3.30;;;;;;;25.92;56.54;99029.17;1756151;81;21121;-75
2022/08/18 08:37:48;;;;;;;12.82;3.77;;;;;;;25.98;56.59;99027.72;1757485;81;21114;-74
2022/08/18 08:40:26;;;;;;;12.55;3.10;;;;;;;26.01;56.21;99032.76;1757143;81;21907;-75
2022/08/18 08:43:01;;;;;;;13.50;3.45;;;;;;;26.10;56.37;99041.22;1757231;81;21052;-74
2022/08/18 08:45:34;;;;;;;9.93;3.08;;;;;;;26.14;57.03;99045.27;1757212;81;21040;-74
2022/08/18 08:48:23;;;;;;;9.57;3.50;;;;;;;26.21;56.80;99047.66;1760346;81;21009;-75
2022/08/18 08:51:01;;;;;;;10.08;3.08;;;;;;;26.31;56.62;99049.70;1771377;81;21044;-74
2022/08/18 08:53:52;;;;;;;9.18;3.20;;;;;;;26.42;55.64;99051.73;1770684;81;21164;-74
2022/08/18 08:56:20;;;;;;;14.07;3.75;;;;;;;26.48;54.84;99052.43;1771487;81;21023;-74
2022/08/18 08:58:53;;;;;;;8.93;2.95;;;;;;;26.50;54.46;99057.15;1771554;81;21087;-74
2022/08/18 09:01:44;;;;;;;11.68;2.92;;;;;;;26.55;54.50;99057.48;1771355;80;21324;-74
2022/08/18 09:05:00;;;;;;;11.78;3.92;;;;;;;26.59;54.58;99056.13;1770431;81;21017;-74
2022/08/18 09:08:01;;;;;;;15.60;3.42;;;;;;;26.68;54.48;99059.22;1771062;81;21101;-74
2022/08/18 09:10:52;;;;;;;12.80;3.12;;;;;;;26.75;53.38;99060.74;1771063;81;21983;-74
2022/08/18 09:13:58;;;;;;;11.78;3.20;;;;;;;26.77;53.30;99055.17;1754663;81;21074;-74
2022/08/18 09:16:44;;;;;;;;;;;;;;;26.77;53.93;99051.13;1773921;80;21032;-74
2022/08/18 09:19:39;;;;;;;5.72;2.98;;;;;;;26.85;54.23;99048.43;1771435;80;20972;-74
2022/08/18 09:22:44;;;;;;;9.70;3.20;;;;;;;26.93;53.94;99049.75;1771175;80;26463;-74
2022/08/18 09:25:30;;;;;;;9.73;3.12;;;;;;;27.03;53.77;99046.88;1771721;81;21953;-75
2022/08/18 09:28:22;;;;;;;10.05;3.50;;;;;;;27.16;53.10;99040.96;1771359;81;21086;-75
2022/08/18 09:31:06;;;;;;;8.95;3.02;;;;;;;27.26;53.66;99044.31;1766889;81;21165;-74
2022/08/18 09:33:45;;;;;;;7.40;3.08;;;;;;;27.39;53.55;99039.77;1771325;80;21071;-74
2022/08/18 09:36:44;;;;;;;7.67;2.87;;;;;;;27.53;52.72;99035.50;1771244;80;21125;-74
2022/08/18 09:42:29;;;;;;;8.93;3.67;;;;;;;27.65;52.23;99040.84;1771319;81;21082;-75
2022/08/18 09:45:00;;;;;;;11.90;3.30;;;;;;;27.74;51.57;99041.65;1771014;80;21069;-74
2022/08/18 09:47:36;;;;;;;15.58;3.47;;;;;;;27.80;52.17;99045.84;1771330;80;21054;-74
2022/08/18 09:50:15;;;;;;;7.87;2.87;;;;;;;27.91;51.35;99049.20;1771070;80;21137;-75
2022/08/18 09:52:46;;;;;;;7.53;3.05;;;;;;;27.94;50.69;99050.20;1770644;81;21067;-74
2022/08/18 09:55:21;;;;;;;6.05;3.65;;;;;;;28.01;50.29;99043.09;1771166;81;21091;-75
2022/08/18 09:57:47;;;;;;;11.28;3.42;;;;;;;28.08;51.07;99042.71;1771252;81;21142;-74
2022/08/18 10:00:27;;;;;;;9.13;3.35;;;;;;;28.17;50.31;99042.98;1715398;81;21058;-75
2022/08/18 10:02:59;;;;;;;12.10;2.77;;;;;;;28.14;49.44;99039.80;1782586;80;21128;-75
2022/08/18 10:05:27;;;;;;;11.20;2.72;;;;;;;28.15;49.29;99036.91;1759166;81;21051;-74
2022/08/18 10:08:15;;;;;;;15.83;2.98;;;;;;;28.22;50.13;99038.91;1778404;79;21055;-75
2022/08/18 10:11:08;;;;;;;7.65;2.90;;;;;;;28.29;48.18;99039.88;1770830;81;21513;-75
2022/08/18 10:13:46;;;;;;;8.50;2.52;;;;;;;28.35;49.94;99039.17;1769420;81;21001;-75
2022/08/18 10:16:24;;;;;;;7.62;2.83;;;;;;;28.52;49.95;99038.02;1770534;81;21811;-74
2022/08/18 10:19:16;;;;;;;7.78;2.80;;;;;;;28.70;49.72;99034.20;1778984;80;21518;-74
2022/08/18 10:22:00;;;;;;;10.08;2.72;;;;;;;28.85;49.28;99036.44;1770646;81;21012;-74
2022/08/18 10:24:47;;;;;;;7.22;3.00;;;;;;;29.00;48.40;99028.84;1778958;80;21011;-75
2022/08/18 10:27:36;;;;;;;12.23;2.80;;;;;;;29.08;46.46;99031.48;1769536;81;21109;-75
2022/08/18 10:30:03;;;;;;;8.98;2.80;;;;;;;29.08;46.72;99043.17;1760873;81;21849;-74
2022/08/18 10:32:42;;;;;;;10.55;2.70;;;;;;;29.08;45.90;99036.89;1770606;81;21039;-74
2022/08/18 10:35:36;;;;;;;8.15;2.20;;;;;;;29.11;45.53;99033.82;1771038;81;21073;-74
2022/08/18 10:38:29;;;;;;;6.83;2.52;;;;;;;29.16;46.16;99038.17;1778727;80;21079;-73
2022/08/18 10:41:01;;;;;;;6.12;2.60;;;;;;;29.28;46.36;99040.77;1740890;81;22154;-74
2022/08/18 10:43:33;;;;;;;10.40;2.70;;;;;;;29.39;46.14;99043.55;1778230;80;21950;-75
2022/08/18 10:45:59;;;;;;;9.63;2.35;;;;;;;29.52;45.90;99044.27;1778548;80;21653;-75
2022/08/18 10:48:29;;;;;;;11.28;2.58;;;;;;;29.61;46.17;99038.23;1739180;81;21675;-75
2022/08/18 10:51:16;;;;;;;8.90;2.67;;;;;;;29.70;46.00;99045.74;1784134;80;21110;-75
2022/08/18 10:53:49;;;;;;;15.63;2.85;;;;;;;29.81;45.30;99042.59;1766623;79;21036;-75
2022/08/18 10:56:27;;;;;;;8.85;2.27;;;;;;;29.92;44.52;99042.61;1809190;78;21753;-75
2022/08/18 10:58:59;;;;;;;8.40;2.55;;;;;;;30.04;45.61;99045.67;1784128;80;21081;-74
2022/08/18 11:01:31;;;;;;;8.08;2.45;;;;;;;30.14;44.77;99039.42;1751612;81;21079;-74
2022/08/18 11:04:29;;;;;;;10.75;3.00;;;;;;;30.22;43.92;99035.23;1751497;81;21024;-75
2022/08/18 11:07:10;;;;;;;8.95;2.87;;;;;;;30.22;43.14;99039.30;1809203;79;21023;-75
2022/08/18 11:09:37;;;;;;;8.03;2.92;;;;;;;30.27;44.00;99046.88;1792751;79;21227;-74
2022/08/18 11:12:06;;;;;;;8.53;2.33;;;;;;;30.38;43.69;99047.24;1808806;79;21549;-75
2022/08/18 11:15:09;;;;;;;13.50;2.80;;;;;;;30.46;43.62;99050.86;1808749;79;21588;-74
2022/08/18 11:18:10;;;;;;;5.42;2.40;;;;;;;30.53;42.50;99044.97;1808797;79;21023;-75
2022/08/18 11:20:38;;;;;;;6.35;2.40;;;;;;;30.60;42.54;99045.89;1808788;78;21085;-74
2022/08/18 11:23:12;;;;;;;9.85;3.08;;;;;;;30.68;43.73;99038.98;1808875;79;21152;-75
2022/08/18 11:25:40;;;;;;;5.92;2.50;;;;;;;30.75;42.85;99035.80;1808858;79;20979;-75
2022/08/18 11:28:16;;;;;;;8.33;2.45;;;;;;;30.81;42.25;99038.23;1779943;79;21027;-75
2022/08/18 11:30:42;;;;;;;7.90;2.80;;;;;;;30.79;42.57;99029.45;1808948;79;21047;-75
2022/08/18 11:33:15;;;;;;;8.13;2.47;;;;;;;30.82;42.83;99030.42;1808995;79;22040;-74
2022/08/18 11:35:56;;;;;;;9.20;3.10;;;;;;;30.91;42.99;99035.19;1808831;79;21110;-75
2022/08/18 11:38:23;;;;;;;9.20;2.55;;;;;;;30.93;42.44;99035.83;1808592;79;20976;-75
2022/08/18 11:41:15;;;;;;;7.50;2.62;;;;;;;30.91;42.52;99032.47;1809006;79;21008;-75
2022/08/18 11:43:42;;;;;;;10.30;2.40;;;;;;;30.93;41.53;99031.25;1818687;78;21615;-75
2022/08/18 11:46:29;;;;;;;7.00;2.60;;;;;;;30.95;41.56;99028.88;1821063;78;21502;-74
2022/08/18 11:48:56;;;;;;;5.60;2.47;;;;;;;30.93;42.47;99031.75;1820695;78;21844;-74
2022/08/18 11:51:31;;;;;;;8.43;2.65;;;;;;;31.00;42.65;99031.34;1818948;78;21536;-75
2022/08/18 11:54:11;;;;;;;9.93;2.52;;;;;;;31.11;41.72;99023.14;1818971;78;21559;-75
2022/08/18 11:56:38;;;;;;;12.98;2.52;;;;;;;31.14;41.29;99024.64;1818752;78;21101;-75
2022/08/18 11:59:06;;;;;;;4.47;2.27;;;;;;;31.13;40.80;99024.31;1819021;78;21156;-74
2022/08/18 12:01:49;;;;;;;7.83;2.30;;;;;;;31.14;41.63;99017.32;1818972;78;21121;-74
2022/08/18 12:04:37;;;;;;;9.03;2.75;;;;;;;31.19;41.66;99012.66;1793378;78;21081;-74
2022/08/18 12:07:11;;;;;;;9.80;2.80;;;;;;;31.22;41.59;99021.25;1819112;78;21064;-75
2022/08/18 12:10:26;;;;;;;8.68;2.65;;;;;;;31.33;42.06;99020.36;1794809;78;21049;-74
2022/08/18 12:12:53;;;;;;;9.50;2.50;;;;;;;31.42;40.74;99017.30;1820576;78;21051;-74
2022/08/18 12:15:32;;;;;;;5.45;2.72;;;;;;;31.45;41.69;99020.94;1764923;81;21118;-75
2022/08/18 12:17:58;;;;;;;4.72;2.62;;;;;;;31.53;40.71;99015.91;1763514;81;21578;-74